createdAt,value
2017-12-05T00:02:24.812Z,49.78
2017-12-05T00:04:51.281Z,52.80
2017-12-05T00:07:17.649Z,50.58
2017-12-05T00:09:44.021Z,50.43
2017-12-05T00:12:10.447Z,57.51
2017-12-05T00:14:36.836Z,53.48
2017-12-05T00:17:03.219Z,53.10
2017-12-05T00:19:29.640Z,56.07
2017-12-05T00:21:56.020Z,52.52
2017-12-05T00:24:22.436Z,51.85
2017-12-05T00:26:48.837Z,57.66
2017-12-05T00:29:15.198Z,55.11
2017-12-05T00:31:41.765Z,56.66
2017-12-05T00:34:08.168Z,54.21
2017-12-05T00:36:34.516Z,50.61
2017-12-05T00:39:00.934Z,52.82
2017-12-05T00:41:27.473Z,63.57
2017-12-05T00:43:54.005Z,52.27
2017-12-05T00:46:20.439Z,53.73
2017-12-05T00:48:46.888Z,50.50
2017-12-05T00:51:13.240Z,54.38
2017-12-05T00:53:39.604Z,53.10
2017-12-05T00:56:06.069Z,50.43
2017-12-05T00:58:32.387Z,60.11
2017-12-05T01:00:58.944Z,51.57
2017-12-05T01:03:25.344Z,57.58
2017-12-05T01:05:51.668Z,57.35
2017-12-05T01:08:18.013Z,61.87
2017-12-05T01:10:44.368Z,52.33
2017-12-05T01:13:10.692Z,58.10
2017-12-05T01:15:37.022Z,55.50
2017-12-05T01:18:03.459Z,50.08
2017-12-05T01:20:29.911Z,56.47
2017-12-05T01:22:56.434Z,61.92
2017-12-05T01:25:22.788Z,56.19
2017-12-05T01:27:49.120Z,62.64
2017-12-05T01:30:15.460Z,52.30
2017-12-05T01:32:41.828Z,55.46
2017-12-05T01:35:08.182Z,52.20
2017-12-05T01:37:34.618Z,59.58
2017-12-05T01:40:00.980Z,54.30
2017-12-05T01:42:27.483Z,50.79
2017-12-05T01:44:53.877Z,57.71
2017-12-05T01:47:20.324Z,51.53
2017-12-05T01:49:46.693Z,55.32
2017-12-05T01:52:13.220Z,54.85
2017-12-05T01:54:39.649Z,52.93
2017-12-05T01:57:06.012Z,60.73
2017-12-05T01:59:32.396Z,52.94
2017-12-05T02:01:58.950Z,51.97
2017-12-05T02:04:25.486Z,51.92
2017-12-05T02:06:51.904Z,55.60
2017-12-05T02:09:18.405Z,64.51
2017-12-05T02:11:44.825Z,61.97
2017-12-05T02:14:11.285Z,61.60
2017-12-05T02:16:37.708Z,57.03
2017-12-05T02:19:04.289Z,51.20
2017-12-05T02:21:30.718Z,52.85
2017-12-05T02:23:57.116Z,54.88
2017-12-05T02:26:23.497Z,55.95
2017-12-05T02:28:49.852Z,51.58
2017-12-05T02:31:16.262Z,51.52
2017-12-05T02:33:42.618Z,53.83
2017-12-05T02:36:08.980Z,49.96
2017-12-05T02:38:35.377Z,50.49
2017-12-05T02:41:08.883Z,52.16
2017-12-05T02:43:35.296Z,55.79
2017-12-05T02:46:01.815Z,53.37
2017-12-05T02:48:28.263Z,55.50
2017-12-05T02:50:54.680Z,54.80
2017-12-05T02:53:21.145Z,64.35
2017-12-05T02:55:47.581Z,52.81
2017-12-05T02:58:14.037Z,59.96
2017-12-05T03:00:40.532Z,54.60
2017-12-05T03:03:06.949Z,52.97
2017-12-05T03:05:33.370Z,52.51
2017-12-05T03:07:59.847Z,60.14
2017-12-05T03:10:26.276Z,51.28
2017-12-05T03:12:52.663Z,56.98
2017-12-05T03:15:19.224Z,56.35
2017-12-05T03:17:45.661Z,51.79
2017-12-05T03:20:12.104Z,53.29
2017-12-05T03:22:38.536Z,55.37
2017-12-05T03:25:04.940Z,51.10
2017-12-05T03:27:31.317Z,51.94
2017-12-05T03:29:57.696Z,56.71
2017-12-05T03:32:24.048Z,54.71
2017-12-05T03:34:50.402Z,51.12
2017-12-05T03:37:16.813Z,57.16
2017-12-05T03:39:43.172Z,51.68
2017-12-05T03:42:09.511Z,51.94
2017-12-05T03:44:35.879Z,62.37
2017-12-05T03:47:02.341Z,50.06
2017-12-05T03:49:28.670Z,51.32
2017-12-05T03:51:55.032Z,50.66
2017-12-05T03:54:21.368Z,51.88
2017-12-05T03:56:47.712Z,57.42
2017-12-05T03:59:14.200Z,56.57
2017-12-05T04:01:40.557Z,53.71
2017-12-05T04:04:06.905Z,50.65
2017-12-05T04:06:33.324Z,50.92
2017-12-05T04:08:59.676Z,56.67
2017-12-05T04:11:26.032Z,54.09
2017-12-05T04:13:52.444Z,55.92
2017-12-05T04:16:18.818Z,52.39
2017-12-05T04:18:45.181Z,55.59
2017-12-05T04:21:11.596Z,55.66
2017-12-05T04:23:37.940Z,54.45
2017-12-05T04:26:04.276Z,51.57
2017-12-05T04:28:30.660Z,50.54
2017-12-05T04:30:57.124Z,50.75
2017-12-05T04:33:23.472Z,51.03
2017-12-05T04:35:49.895Z,53.41
2017-12-05T04:38:16.308Z,50.76
2017-12-05T04:40:42.704Z,51.04
2017-12-05T04:43:09.116Z,51.94
2017-12-05T04:45:35.540Z,52.66
2017-12-05T04:48:01.944Z,52.23
2017-12-05T04:50:28.332Z,63.72
2017-12-05T04:52:54.732Z,53.56
2017-12-05T04:55:21.245Z,56.00
2017-12-05T04:57:47.732Z,54.47
2017-12-05T05:00:14.148Z,55.00
2017-12-05T05:02:40.576Z,60.07
2017-12-05T05:05:07.058Z,51.92
2017-12-05T05:07:33.433Z,52.07
2017-12-05T05:09:59.804Z,56.16
2017-12-05T05:12:26.228Z,52.87
2017-12-05T05:14:52.629Z,61.93
2017-12-05T05:17:19.037Z,53.64
2017-12-05T05:19:45.449Z,53.29
2017-12-05T05:22:11.856Z,52.79
2017-12-05T05:24:38.224Z,51.91
2017-12-05T05:27:04.688Z,50.98
2017-12-05T05:29:31.124Z,51.47
2017-12-05T05:31:57.470Z,53.83
2017-12-05T05:34:23.889Z,52.18
2017-12-05T05:36:50.268Z,54.59
2017-12-05T05:39:16.609Z,52.75
2017-12-05T05:41:43.040Z,54.06
2017-12-05T05:44:09.576Z,53.13
2017-12-05T05:46:35.964Z,54.47
2017-12-05T05:49:02.388Z,51.24
2017-12-05T05:51:28.800Z,52.33
2017-12-05T05:53:55.161Z,51.21
2017-12-05T05:56:21.568Z,57.68
2017-12-05T05:58:47.916Z,51.30
2017-12-05T06:01:14.269Z,52.25
2017-12-05T06:03:40.736Z,53.67
2017-12-05T06:06:07.075Z,50.29
2017-12-05T06:08:33.436Z,54.84
2017-12-05T06:10:59.856Z,62.62
2017-12-05T06:13:26.311Z,52.65
2017-12-05T06:15:52.653Z,51.91
2017-12-05T06:18:19.071Z,59.22
2017-12-05T06:20:45.417Z,59.70
2017-12-05T06:23:11.769Z,54.69
2017-12-05T06:25:38.155Z,57.15
2017-12-05T06:28:04.508Z,51.98
2017-12-05T06:30:30.863Z,53.60
2017-12-05T06:32:57.243Z,52.02
2017-12-05T06:35:23.616Z,52.99
2017-12-05T06:37:49.984Z,60.25
2017-12-05T06:40:16.376Z,57.26
2017-12-05T06:42:42.724Z,51.84
2017-12-05T06:45:09.137Z,51.49
2017-12-05T06:47:35.600Z,58.78
2017-12-05T06:50:02.061Z,57.85
2017-12-05T06:52:28.610Z,51.50
2017-12-05T06:54:55.143Z,57.16
2017-12-05T06:57:21.559Z,52.60
2017-12-05T06:59:47.961Z,55.41
2017-12-05T07:02:14.472Z,52.92
2017-12-05T07:04:42.775Z,53.95
2017-12-05T07:07:09.821Z,51.34
2017-12-05T07:09:36.288Z,52.51
2017-12-05T07:12:02.711Z,51.55
2017-12-05T07:14:29.154Z,53.35
2017-12-05T07:16:55.641Z,56.91
2017-12-05T07:19:22.243Z,52.77
2017-12-05T07:21:48.678Z,54.65
2017-12-05T07:24:15.185Z,61.00
2017-12-05T07:26:41.724Z,54.40
2017-12-05T07:29:08.225Z,58.68
2017-12-05T07:31:34.842Z,54.96
2017-12-05T07:34:01.284Z,53.50
2017-12-05T07:36:27.712Z,53.91
2017-12-05T07:38:54.189Z,55.03
2017-12-05T07:41:20.654Z,51.85
2017-12-05T07:43:47.076Z,53.40
2017-12-05T07:46:13.576Z,56.10
2017-12-05T07:48:40.083Z,51.85
2017-12-05T07:51:06.541Z,52.14
2017-12-05T07:53:32.992Z,60.47
2017-12-05T07:55:59.388Z,57.73
2017-12-05T07:58:25.822Z,51.62
2017-12-05T08:00:52.292Z,50.09
2017-12-05T08:03:18.992Z,49.58
2017-12-05T08:05:45.418Z,50.90
2017-12-05T08:08:12.138Z,49.98
2017-12-05T08:10:38.592Z,49.65
2017-12-05T08:13:05.060Z,53.50
2017-12-05T08:15:31.548Z,51.14
2017-12-05T08:17:58.044Z,48.85
2017-12-05T08:20:24.477Z,51.04
2017-12-05T08:22:50.996Z,49.96
2017-12-05T08:25:17.495Z,50.09
2017-12-05T08:27:43.921Z,53.67
2017-12-05T08:30:10.475Z,51.13
2017-12-05T08:32:36.917Z,47.54
2017-12-05T08:35:03.519Z,47.30
2017-12-05T08:37:30.072Z,48.29
2017-12-05T08:39:56.520Z,48.67
2017-12-05T08:42:22.956Z,49.82
2017-12-05T08:44:49.456Z,54.10
2017-12-05T08:47:15.867Z,48.22
2017-12-05T08:49:42.295Z,47.95
2017-12-05T08:52:08.793Z,50.64
2017-12-05T08:54:35.252Z,51.24
2017-12-05T08:57:01.702Z,48.97
2017-12-05T08:59:28.196Z,47.62
2017-12-05T09:01:54.649Z,54.37
2017-12-05T09:04:21.100Z,53.69
2017-12-05T09:06:47.593Z,48.08
2017-12-05T09:09:13.996Z,47.88
2017-12-05T09:11:40.445Z,47.28
2017-12-05T09:14:06.942Z,47.65
2017-12-05T09:16:33.378Z,49.58
2017-12-05T09:18:59.796Z,50.12
2017-12-05T09:21:26.272Z,47.85
2017-12-05T09:23:52.851Z,47.77
2017-12-05T09:26:19.288Z,48.30
2017-12-05T09:28:45.947Z,50.31
2017-12-05T09:31:12.387Z,47.18
2017-12-05T09:33:38.863Z,47.70
2017-12-05T09:36:05.330Z,46.92
2017-12-05T09:38:31.795Z,48.41
2017-12-05T09:40:58.247Z,50.22
2017-12-05T09:43:24.732Z,48.47
2017-12-05T09:45:51.234Z,46.55
2017-12-05T09:48:17.776Z,51.24
2017-12-05T09:50:44.201Z,46.90
2017-12-05T09:53:10.612Z,48.40
2017-12-05T09:55:37.047Z,49.55
2017-12-05T09:58:03.516Z,48.58
2017-12-05T10:00:29.964Z,47.41
2017-12-05T10:02:56.396Z,47.52
2017-12-05T10:05:22.935Z,47.45
2017-12-05T10:07:49.424Z,49.00
2017-12-05T10:10:15.892Z,46.56
2017-12-05T10:12:42.385Z,48.92
2017-12-05T10:15:08.819Z,48.82
2017-12-05T10:17:35.236Z,48.98
2017-12-05T10:20:01.721Z,49.56
2017-12-05T10:22:28.167Z,47.23
2017-12-05T10:24:54.625Z,46.95
2017-12-05T10:27:21.089Z,46.29
2017-12-05T10:29:47.556Z,44.97
2017-12-05T10:32:14.010Z,45.44
2017-12-05T10:34:40.799Z,46.21
2017-12-05T10:37:07.241Z,44.72
2017-12-05T10:39:33.689Z,45.48
2017-12-05T10:42:00.181Z,45.04
2017-12-05T10:44:26.657Z,45.86
2017-12-05T10:46:53.137Z,47.42
2017-12-05T10:49:19.634Z,48.08
2017-12-05T10:51:46.077Z,45.91
2017-12-05T10:54:12.544Z,45.05
2017-12-05T10:56:39.036Z,45.20
2017-12-05T10:59:05.415Z,46.11
2017-12-05T11:01:31.844Z,47.09
2017-12-05T11:03:58.283Z,45.01
2017-12-05T11:06:24.667Z,43.82
2017-12-05T11:08:51.140Z,45.13
2017-12-05T11:11:17.660Z,45.54
2017-12-05T11:13:44.068Z,43.86
2017-12-05T11:16:11.630Z,45.44
2017-12-05T11:18:38.134Z,49.92
2017-12-05T11:21:04.604Z,45.33
2017-12-05T11:23:31.124Z,46.19
2017-12-05T11:25:57.800Z,43.72
2017-12-05T11:28:24.337Z,43.75
2017-12-05T11:30:50.882Z,44.46
2017-12-05T11:33:17.297Z,43.81
2017-12-05T11:35:43.717Z,43.60
2017-12-05T11:38:10.111Z,44.03
2017-12-05T11:40:36.647Z,44.37
2017-12-05T11:43:03.124Z,47.30
2017-12-05T11:45:29.499Z,43.82
2017-12-05T11:47:55.915Z,44.54
2017-12-05T11:50:22.332Z,44.21
2017-12-05T11:52:49.044Z,48.85
2017-12-05T11:55:15.512Z,43.86
2017-12-05T11:57:42.168Z,47.06
2017-12-05T12:00:08.649Z,43.85
2017-12-05T12:02:35.157Z,44.77
2017-12-05T12:05:01.596Z,46.57
2017-12-05T12:07:28.037Z,44.50
2017-12-05T12:09:54.513Z,45.35
2017-12-05T12:12:20.996Z,45.92
2017-12-05T12:14:47.365Z,46.85
2017-12-05T12:17:13.775Z,49.20
2017-12-05T12:19:40.195Z,46.15
2017-12-05T12:22:06.579Z,50.93
2017-12-05T12:24:32.958Z,46.27
2017-12-05T12:26:59.307Z,45.41
2017-12-05T12:29:25.700Z,45.08
2017-12-05T12:31:52.097Z,44.87
2017-12-05T12:34:18.437Z,45.53
2017-12-05T12:36:44.792Z,48.28
2017-12-05T12:39:11.239Z,49.44
2017-12-05T12:41:37.611Z,48.69
2017-12-05T12:44:03.997Z,48.56
2017-12-05T12:46:30.401Z,50.36
2017-12-05T12:48:56.761Z,52.27
2017-12-05T12:51:23.112Z,52.36
2017-12-05T12:53:49.540Z,54.75
2017-12-05T12:56:15.874Z,51.76
2017-12-05T12:58:42.331Z,53.72
2017-12-05T13:01:08.723Z,51.37
2017-12-05T13:03:35.096Z,50.92
2017-12-05T13:06:01.456Z,52.38
2017-12-05T13:08:27.869Z,50.82
2017-12-05T13:10:54.277Z,55.39
2017-12-05T13:13:20.640Z,54.08
2017-12-05T13:15:47.009Z,55.01
2017-12-05T13:18:13.366Z,54.10
2017-12-05T13:20:39.720Z,52.31
2017-12-05T13:23:06.117Z,53.27
2017-12-05T13:25:32.484Z,51.05
2017-12-05T13:27:58.881Z,51.92
2017-12-05T13:30:25.305Z,52.43
2017-12-05T13:32:51.709Z,53.46
2017-12-05T13:35:18.117Z,57.46
2017-12-05T13:37:44.557Z,54.41
2017-12-05T13:40:10.890Z,52.17
2017-12-05T13:42:37.312Z,50.83
2017-12-05T13:45:03.718Z,52.06
2017-12-05T13:47:30.154Z,50.58
2017-12-05T13:49:56.769Z,51.76
2017-12-05T13:52:23.245Z,51.77
2017-12-05T13:54:49.659Z,50.30
2017-12-05T13:57:16.069Z,56.67
2017-12-05T13:59:42.512Z,50.27
2017-12-05T14:02:08.921Z,49.49
2017-12-05T14:04:35.446Z,56.59
2017-12-05T14:07:02.031Z,49.13
2017-12-05T14:09:28.485Z,51.28
2017-12-05T14:11:54.938Z,54.00
2017-12-05T14:14:21.536Z,49.04
2017-12-05T14:16:47.950Z,51.18
2017-12-05T14:19:14.294Z,49.03
2017-12-05T14:21:40.809Z,49.96
2017-12-05T14:24:07.312Z,50.46
2017-12-05T14:26:33.733Z,50.50
2017-12-05T14:29:00.157Z,53.70
2017-12-05T14:31:26.555Z,51.12
2017-12-05T14:33:53.033Z,53.32
2017-12-05T14:36:19.468Z,53.91
2017-12-05T14:38:46.033Z,55.06
2017-12-05T14:41:12.481Z,53.02
2017-12-05T14:43:38.941Z,52.46
2017-12-05T14:46:05.417Z,51.00
2017-12-05T14:48:31.789Z,51.31
2017-12-05T14:50:58.464Z,51.13
2017-12-05T14:53:24.875Z,52.98
2017-12-05T14:55:51.317Z,51.11
2017-12-05T14:58:17.957Z,52.41
2017-12-05T15:00:44.492Z,55.38
2017-12-05T15:03:11.075Z,51.62
2017-12-05T15:05:37.511Z,50.51
2017-12-05T15:08:03.969Z,53.56
2017-12-05T15:10:30.364Z,51.26
2017-12-05T15:12:56.876Z,52.02
2017-12-05T15:15:23.302Z,51.10
2017-12-05T15:17:49.754Z,51.11
2017-12-05T15:20:16.188Z,54.13
2017-12-05T15:22:42.922Z,51.78
2017-12-05T15:25:09.417Z,56.95
2017-12-05T15:27:35.902Z,51.13
2017-12-05T15:30:02.298Z,56.17
2017-12-05T15:32:28.770Z,52.55
2017-12-05T15:34:55.245Z,52.50
2017-12-05T15:37:21.650Z,52.04
2017-12-05T15:39:48.173Z,54.40
2017-12-05T15:42:14.652Z,54.96
2017-12-05T15:44:41.052Z,54.05
2017-12-05T15:47:07.434Z,53.34
2017-12-05T15:49:33.944Z,53.32
2017-12-05T15:52:00.312Z,53.72
2017-12-05T15:54:26.700Z,53.83
2017-12-05T15:56:53.148Z,53.58
2017-12-05T15:59:19.580Z,53.51
2017-12-05T16:01:45.970Z,54.23
2017-12-05T16:04:12.463Z,57.16
2017-12-05T16:06:38.877Z,55.06
2017-12-05T16:09:05.285Z,55.90
2017-12-05T16:11:31.746Z,59.66
2017-12-05T16:13:58.131Z,54.57
2017-12-05T16:16:24.608Z,54.90
2017-12-05T16:18:51.019Z,56.14
2017-12-05T16:21:17.401Z,57.69
2017-12-05T16:23:44.036Z,54.27
2017-12-05T16:26:10.456Z,55.19
2017-12-05T16:28:36.845Z,55.96
2017-12-05T16:31:03.312Z,55.79
2017-12-05T16:33:29.761Z,54.12
2017-12-05T16:35:56.266Z,57.18
2017-12-05T16:38:22.691Z,55.80
2017-12-05T16:40:49.281Z,56.98
2017-12-05T16:43:15.817Z,54.84
2017-12-05T16:45:42.554Z,57.55
2017-12-05T16:48:10.196Z,56.46
2017-12-05T16:50:36.737Z,57.35
2017-12-05T16:53:03.209Z,56.42
2017-12-05T16:55:29.649Z,56.99
2017-12-05T16:57:56.036Z,56.49
2017-12-05T17:00:23.509Z,57.62
2017-12-05T17:02:50.092Z,58.07
2017-12-05T17:05:16.552Z,57.72
2017-12-05T17:07:42.984Z,57.16
2017-12-05T17:10:09.660Z,59.19
2017-12-05T17:12:36.152Z,56.74
2017-12-05T17:15:02.762Z,56.54
2017-12-05T17:17:29.189Z,56.25
2017-12-05T17:19:55.569Z,59.68
2017-12-05T17:22:22.056Z,58.20
2017-12-05T17:24:48.514Z,57.13
2017-12-05T17:27:14.924Z,56.48
2017-12-05T17:29:41.355Z,58.87
2017-12-05T17:32:08.839Z,56.81
2017-12-05T17:34:35.216Z,56.97
2017-12-05T17:37:01.611Z,61.49
2017-12-05T17:39:28.344Z,57.78
2017-12-05T17:41:55.084Z,57.55
2017-12-05T17:44:21.465Z,57.73
2017-12-05T17:46:47.945Z,66.11
2017-12-05T17:49:14.330Z,58.64
2017-12-05T17:51:40.731Z,61.42
2017-12-05T17:54:07.200Z,57.81
2017-12-05T17:56:33.553Z,61.71
2017-12-05T17:58:59.957Z,59.52
2017-12-05T18:01:26.424Z,58.41
2017-12-05T18:03:52.862Z,57.56
2017-12-05T18:06:19.310Z,60.67
2017-12-05T18:08:45.805Z,57.16
2017-12-05T18:11:12.241Z,56.76
2017-12-05T18:13:38.676Z,56.53
2017-12-05T18:16:05.337Z,56.02
2017-12-05T18:18:31.777Z,56.07
2017-12-05T18:20:58.269Z,56.34
2017-12-05T18:23:24.900Z,56.29
2017-12-05T18:25:51.333Z,56.52
2017-12-05T18:28:18.256Z,56.82
2017-12-05T18:30:44.757Z,56.99
2017-12-05T18:33:11.188Z,57.53
2017-12-05T18:35:37.648Z,57.20
2017-12-05T18:38:04.125Z,57.33
2017-12-05T18:40:30.554Z,57.53
2017-12-05T18:42:56.980Z,57.22
2017-12-05T18:45:23.433Z,57.15
2017-12-05T18:47:49.880Z,58.82
2017-12-05T18:50:16.324Z,60.48
2017-12-05T18:52:42.804Z,59.79
2017-12-05T18:55:09.274Z,57.50
2017-12-05T18:57:35.730Z,59.36
2017-12-05T19:00:02.193Z,56.67
2017-12-05T19:02:28.660Z,57.93
2017-12-05T19:04:55.104Z,57.11
2017-12-05T19:07:21.723Z,57.17
2017-12-05T19:09:48.167Z,60.34
2017-12-05T19:12:14.600Z,57.80
2017-12-05T19:14:41.209Z,58.00
2017-12-05T19:17:07.646Z,59.65
2017-12-05T19:19:34.093Z,58.10
2017-12-05T19:22:00.565Z,56.84
2017-12-05T19:24:27.133Z,57.44
2017-12-05T19:26:53.634Z,57.64
2017-12-05T19:29:20.088Z,57.48
2017-12-05T19:31:46.501Z,57.12
2017-12-05T19:34:12.933Z,57.31
2017-12-05T19:36:39.440Z,57.76
2017-12-05T19:39:05.876Z,55.58
2017-12-05T19:41:32.312Z,56.67
2017-12-05T19:43:58.942Z,56.43
2017-12-05T19:46:25.398Z,56.91
2017-12-05T19:48:51.840Z,57.13
2017-12-05T19:51:18.325Z,58.30
2017-12-05T19:53:44.761Z,61.99
2017-12-05T19:56:11.208Z,56.49
2017-12-05T19:58:37.755Z,60.84
2017-12-05T20:01:04.205Z,60.48
2017-12-05T20:03:30.610Z,55.43
2017-12-05T20:05:57.083Z,55.40
2017-12-05T20:08:23.516Z,56.65
2017-12-05T20:10:49.972Z,55.22
2017-12-05T20:13:16.472Z,56.10
2017-12-05T20:15:42.985Z,57.26
2017-12-05T20:18:09.519Z,59.10
2017-12-05T20:20:36.057Z,62.71
2017-12-05T20:23:02.590Z,58.10
2017-12-05T20:25:29.029Z,60.18
2017-12-05T20:27:55.528Z,60.40
2017-12-05T20:30:22.001Z,59.23
2017-12-05T20:32:48.504Z,58.78
2017-12-05T20:35:14.968Z,59.26
2017-12-05T20:37:41.421Z,63.68
2017-12-05T20:40:07.857Z,59.76
2017-12-05T20:42:34.332Z,58.02
2017-12-05T20:45:00.779Z,58.38
2017-12-05T20:47:27.209Z,59.09
2017-12-05T20:49:53.536Z,59.18
2017-12-05T20:52:19.769Z,60.54
2017-12-05T20:54:46.012Z,58.29
2017-12-05T20:57:12.317Z,60.82
2017-12-05T20:59:38.548Z,60.63
2017-12-05T21:02:04.789Z,58.78
2017-12-05T21:04:31.069Z,59.24
2017-12-05T21:06:57.318Z,57.93
2017-12-05T21:09:23.600Z,61.02
2017-12-05T21:11:49.855Z,57.65
2017-12-05T21:14:16.116Z,62.97
2017-12-05T21:16:42.340Z,56.85
2017-12-05T21:19:08.712Z,58.74
2017-12-05T21:21:34.944Z,57.68
2017-12-05T21:24:01.177Z,61.09
2017-12-05T21:26:27.436Z,58.14
2017-12-05T21:28:53.662Z,59.74
2017-12-05T21:31:19.888Z,57.61
2017-12-05T21:33:46.160Z,60.07
2017-12-05T21:36:12.407Z,65.68
2017-12-05T21:38:38.637Z,56.43
2017-12-05T21:41:04.921Z,56.68
2017-12-05T21:43:31.437Z,59.99
2017-12-05T21:45:58.044Z,56.07
2017-12-05T21:48:24.682Z,56.57
2017-12-05T21:50:51.422Z,55.93
2017-12-05T21:53:18.062Z,56.05
2017-12-05T21:55:45.530Z,58.28
2017-12-05T21:58:12.570Z,62.71
2017-12-05T22:00:39.620Z,55.52
2017-12-05T22:03:06.439Z,56.03
2017-12-05T22:05:33.217Z,60.63
2017-12-05T22:08:00.043Z,58.37
2017-12-05T22:10:26.883Z,54.71
2017-12-05T22:12:53.506Z,57.00
2017-12-05T22:15:20.021Z,56.30
2017-12-05T22:17:46.660Z,63.41
2017-12-05T22:20:13.160Z,60.99
2017-12-05T22:22:39.514Z,56.62
2017-12-05T22:25:05.925Z,56.16
2017-12-05T22:27:32.287Z,60.44
2017-12-05T22:29:58.631Z,56.51
2017-12-05T22:32:25.091Z,57.96
2017-12-05T22:34:51.464Z,55.38
2017-12-05T22:37:17.796Z,61.73
2017-12-05T22:39:44.161Z,54.42
2017-12-05T22:42:10.517Z,56.14
2017-12-05T22:44:36.951Z,54.81
2017-12-05T22:47:03.361Z,56.65
2017-12-05T22:49:29.716Z,58.24
2017-12-05T22:51:56.078Z,58.28
2017-12-05T22:54:22.460Z,56.89
2017-12-05T22:56:48.809Z,55.52
2017-12-05T22:59:15.161Z,55.44
2017-12-05T23:01:41.574Z,58.57
2017-12-05T23:04:07.920Z,58.07
2017-12-05T23:06:34.269Z,61.88
2017-12-05T23:09:00.677Z,55.14
2017-12-05T23:11:27.102Z,56.37
2017-12-05T23:13:53.434Z,55.84
2017-12-05T23:16:19.790Z,55.68
2017-12-05T23:18:46.144Z,56.41
2017-12-05T23:21:12.516Z,56.73
2017-12-05T23:23:38.936Z,56.42
2017-12-05T23:26:05.291Z,57.65
2017-12-05T23:28:31.653Z,54.95
2017-12-05T23:30:58.035Z,60.81
2017-12-05T23:33:24.386Z,57.07
2017-12-05T23:35:50.736Z,55.90
2017-12-05T23:38:17.120Z,56.15
2017-12-05T23:40:43.468Z,56.24
2017-12-05T23:43:09.824Z,54.91
2017-12-05T23:45:36.197Z,55.79
2017-12-05T23:48:02.608Z,55.86
2017-12-05T23:50:28.952Z,55.65
2017-12-05T23:52:55.361Z,62.35
2017-12-05T23:55:21.704Z,61.06
2017-12-05T23:57:48.104Z,53.87
